createdAt,value
2023-02-25T00:22:41.278Z,88.73
2023-02-25T00:52:44.163Z,87.81
2023-02-25T01:22:47.118Z,87.80
2023-02-25T01:52:50.397Z,87.69
2023-02-25T02:23:06.405Z,87.71
2023-02-25T02:53:11.502Z,88.08
2023-02-25T03:23:17.169Z,89.14
2023-02-25T03:53:20.151Z,89.04
2023-02-25T04:23:23.086Z,89.17
2023-02-25T04:53:26.053Z,90.51
2023-02-25T05:23:28.955Z,91.24
2023-02-25T05:53:32.131Z,92.74
2023-02-25T06:23:36.034Z,91.98
2023-02-25T06:53:40.693Z,93.21
2023-02-25T07:23:44.260Z,93.31
2023-02-25T07:53:48.463Z,92.16
2023-02-25T08:23:51.859Z,89.43
2023-02-25T08:53:54.986Z,88.75
2023-02-25T09:23:59.525Z,87.47
2023-02-25T09:54:11.036Z,76.49
2023-02-25T10:24:20.362Z,71.27
2023-02-25T10:54:24.299Z,77.57
2023-02-25T11:24:32.436Z,83.52
2023-02-25T11:54:39.737Z,81.48
2023-02-25T12:24:56.143Z,70.43
2023-02-25T12:55:24.272Z,80.74
2023-02-25T13:25:41.345Z,56.19
2023-02-25T13:56:01.001Z,45.79
2023-02-25T14:26:26.293Z,44.42
2023-02-25T14:56:46.990Z,44.43
2023-02-25T15:26:50.645Z,34.14
2023-02-25T15:56:54.726Z,43.71
2023-02-25T16:27:01.729Z,50.46
2023-02-25T16:57:06.209Z,50.68
2023-02-25T17:27:09.156Z,51.39
2023-02-25T17:57:18.278Z,54.66
2023-02-25T18:27:24.579Z,54.19
2023-02-25T18:57:27.746Z,55.38
2023-02-25T19:27:32.228Z,58.09
2023-02-25T19:57:35.544Z,59.24
2023-02-25T20:27:38.517Z,60.24
2023-02-25T20:57:45.408Z,59.87
2023-02-25T21:27:48.376Z,61.64
2023-02-25T21:57:51.310Z,63.53
2023-02-25T22:27:57.424Z,67.29
2023-02-25T22:58:01.174Z,67.13
2023-02-25T23:28:04.840Z,68.57
2023-02-25T23:58:07.791Z,68.25
